Time;durP1;ratioP1;P1;durP2;ratioP2;P2;SDS_P1;SDS_P2;PMS_P1;PMS_P2;Temp;Humidity;BMP_temperature;BMP_pressure;BME280_temperature;BME280_humidity;BME280_pressure;Samples;Min_cycle;Max_cycle;Signal;HPM_P1;HPM_P2
2023/09/28 00:02:53;;;;;;;8.45;3.55;;;;;;;12.96;100.00;97389.72;5005591;28;20040;-61
2023/09/28 00:05:20;;;;;;;8.30;3.40;;;;;;;12.77;100.00;97388.56;5006375;28;20048;-61
2023/09/28 00:07:49;;;;;;;6.40;3.53;;;;;;;12.50;100.00;97384.94;5008460;28;20718;-61
2023/09/28 00:10:17;;;;;;;7.07;3.92;;;;;;;12.69;100.00;97388.00;5005425;28;20041;-61
2023/09/28 00:12:47;;;;;;;6.85;4.00;;;;;;;12.71;100.00;97382.28;5006276;28;20120;-61
2023/09/28 00:15:14;;;;;;;8.48;4.18;;;;;;;12.64;100.00;97385.25;5005987;28;20121;-61
2023/09/28 00:17:41;;;;;;;5.80;3.80;;;;;;;12.63;100.00;97385.53;5007053;28;20134;-61
2023/09/28 00:20:13;;;;;;;5.90;3.53;;;;;;;12.79;100.00;97403.50;5006679;28;20046;-61
2023/09/28 00:22:41;;;;;;;6.57;3.50;;;;;;;12.95;100.00;97406.31;5005430;28;20080;-61
2023/09/28 00:25:11;;;;;;;6.53;3.97;;;;;;;13.08;100.00;97405.78;5005068;28;20053;-61
2023/09/28 00:27:39;;;;;;;7.88;4.00;;;;;;;13.17;100.00;97397.94;5006382;28;20073;-61
2023/09/28 00:30:09;;;;;;;7.20;3.28;;;;;;;13.09;100.00;97406.63;5006493;28;20034;-61
2023/09/28 00:32:36;;;;;;;7.40;3.95;;;;;;;12.96;100.00;97406.03;5002786;28;20042;-61
2023/09/28 00:35:05;;;;;;;5.85;3.45;;;;;;;12.91;100.00;97400.59;5006301;28;20121;-61
2023/09/28 00:37:32;;;;;;;6.22;3.65;;;;;;;12.98;100.00;97392.97;4987920;28;20042;-61
2023/09/28 00:39:59;;;;;;;6.43;3.47;;;;;;;13.13;100.00;97399.56;5004787;28;20041;-62
2023/09/28 00:42:28;;;;;;;6.72;3.58;;;;;;;13.13;100.00;97392.22;5005728;28;20038;-61
2023/09/28 00:44:55;;;;;;;5.38;3.55;;;;;;;13.13;100.00;97403.09;4992205;28;20133;-61
2023/09/28 00:47:23;;;;;;;5.90;3.63;;;;;;;13.11;100.00;97394.41;4990164;28;20061;-62
2023/09/28 00:49:52;;;;;;;7.80;3.25;;;;;;;13.10;100.00;97395.47;5005890;28;20501;-61
2023/09/28 00:52:19;;;;;;;6.38;3.50;;;;;;;13.11;100.00;97390.84;5005282;28;20038;-61
2023/09/28 00:54:47;;;;;;;6.30;3.45;;;;;;;13.11;100.00;97391.69;5004319;28;20042;-62
2023/09/28 00:57:15;;;;;;;6.50;3.33;;;;;;;13.12;100.00;97392.50;5005917;28;20148;-61
2023/09/28 00:59:41;;;;;;;5.45;3.25;;;;;;;13.07;100.00;97393.28;4986891;28;20692;-61
2023/09/28 01:02:08;;;;;;;5.82;3.33;;;;;;;13.08;100.00;97397.63;4986869;28;20050;-61
2023/09/28 01:04:36;;;;;;;9.27;4.13;;;;;;;13.10;100.00;97397.38;4987672;28;20765;-61
2023/09/28 01:07:04;;;;;;;5.72;3.35;;;;;;;12.90;100.00;97390.78;5001377;28;20034;-62
2023/09/28 01:09:30;;;;;;;8.18;3.47;;;;;;;12.72;100.00;97389.38;5005356;28;20038;-61
2023/09/28 01:11:57;;;;;;;7.57;3.85;;;;;;;12.64;100.00;97390.69;5005365;28;20033;-61
2023/09/28 01:14:24;;;;;;;5.90;3.47;;;;;;;12.68;100.00;97385.56;5000987;28;20053;-61
2023/09/28 01:16:51;;;;;;;8.80;3.83;;;;;;;12.62;100.00;97387.44;4989569;28;20065;-61
2023/09/28 01:19:18;;;;;;;6.35;3.63;;;;;;;12.63;100.00;97391.78;5005147;28;20129;-61
2023/09/28 01:21:44;;;;;;;6.47;3.55;;;;;;;12.59;100.00;97393.38;4987796;28;20042;-61
2023/09/28 01:24:11;;;;;;;5.70;3.50;;;;;;;12.51;100.00;97399.31;5007151;28;20612;-61
2023/09/28 01:26:39;;;;;;;6.18;3.47;;;;;;;12.54;100.00;97396.09;4997024;28;20304;-61
2023/09/28 01:29:06;;;;;;;7.22;3.85;;;;;;;12.53;100.00;97399.88;5001594;28;20038;-61
2023/09/28 01:31:32;;;;;;;7.22;4.10;;;;;;;12.53;100.00;97399.88;5005280;28;20041;-61
2023/09/28 01:33:59;;;;;;;7.53;3.63;;;;;;;12.53;100.00;97394.47;5002011;28;20057;-61
2023/09/28 01:36:25;;;;;;;7.82;4.43;;;;;;;12.53;100.00;97395.25;5004392;28;20070;-61
2023/09/28 01:39:00;;;;;;;7.65;4.72;;;;;;;12.36;100.00;97398.97;5004840;28;20512;-61
2023/09/28 01:41:27;;;;;;;6.18;4.07;;;;;;;12.30;100.00;97407.34;4986256;28;20118;-60
2023/09/28 01:43:53;;;;;;;5.97;3.92;;;;;;;12.29;100.00;97400.28;5010981;28;20092;-61
2023/09/28 01:46:20;;;;;;;6.32;3.80;;;;;;;12.30;100.00;97393.78;5004464;28;20120;-60
2023/09/28 01:48:47;;;;;;;7.30;4.07;;;;;;;12.32;100.00;97392.44;5006382;28;20112;-61
2023/09/28 01:51:13;;;;;;;8.07;4.10;;;;;;;12.24;100.00;97390.22;5003756;28;20073;-61
2023/09/28 01:53:40;;;;;;;6.18;3.45;;;;;;;12.28;100.00;97395.94;5003474;28;20117;-61
2023/09/28 01:56:08;;;;;;;6.63;4.07;;;;;;;12.32;100.00;97389.72;5005371;28;20042;-61
2023/09/28 01:58:34;;;;;;;6.72;3.78;;;;;;;12.41;100.00;97391.94;4988087;28;20080;-61
2023/09/28 02:01:01;;;;;;;6.40;3.95;;;;;;;12.49;100.00;97394.97;4987872;28;20601;-61
2023/09/28 02:03:28;;;;;;;5.45;3.67;;;;;;;12.41;100.00;97395.47;5002816;28;20608;-61
2023/09/28 02:05:55;;;;;;;6.97;3.42;;;;;;;12.28;100.00;97393.22;5003895;28;20038;-61
2023/09/28 02:08:22;;;;;;;10.07;4.53;;;;;;;12.36;100.00;97398.97;5003566;28;20042;-61
2023/09/28 02:10:48;;;;;;;5.60;3.50;;;;;;;12.45;100.00;97393.03;5002296;28;20045;-61
2023/09/28 02:13:15;;;;;;;7.15;3.83;;;;;;;12.56;100.00;97394.72;4989302;28;20100;-61
2023/09/28 02:15:42;;;;;;;7.03;3.97;;;;;;;12.42;100.00;97394.38;5004283;28;20045;-61
2023/09/28 02:18:09;;;;;;;7.90;4.30;;;;;;;12.33;100.00;97401.41;5006309;28;20108;-61
2023/09/28 02:20:35;;;;;;;6.63;3.90;;;;;;;12.31;100.00;97403.56;5001065;28;20052;-61
2023/09/28 02:23:02;;;;;;;5.43;3.72;;;;;;;12.21;100.00;97405.13;5003954;28;20057;-61
2023/09/28 02:25:30;;;;;;;6.28;3.83;;;;;;;12.19;100.00;97414.59;5005904;28;20042;-61
2023/09/28 02:27:56;;;;;;;6.63;3.90;;;;;;;12.23;100.00;97416.56;5003395;28;20562;-61
2023/09/28 02:30:25;;;;;;;5.35;3.60;;;;;;;12.22;100.00;97409.50;5003418;28;20045;-61
2023/09/28 02:32:55;;;;;;;7.03;3.90;;;;;;;12.20;100.00;97416.28;4985783;28;20612;-61
2023/09/28 02:35:22;;;;;;;8.00;4.45;;;;;;;12.23;100.00;97413.84;5003572;28;20035;-61
2023/09/28 02:37:51;;;;;;;6.40;3.50;;;;;;;12.30;100.00;97419.03;5004034;28;20049;-61
2023/09/28 02:40:19;;;;;;;7.50;4.07;;;;;;;12.30;100.00;97419.03;5003811;28;20653;-61
2023/09/28 02:42:49;;;;;;;5.18;3.30;;;;;;;12.38;100.00;97425.06;5006423;28;20054;-61
2023/09/28 02:45:17;;;;;;;5.80;3.53;;;;;;;12.42;100.00;97418.03;4991944;28;20048;-61
2023/09/28 02:47:46;;;;;;;6.30;4.00;;;;;;;12.50;100.00;97428.41;4987826;28;20046;-61
2023/09/28 02:50:16;;;;;;;7.32;3.72;;;;;;;12.57;100.00;97423.53;5003207;28;20103;-61
2023/09/28 02:52:46;;;;;;;9.52;4.30;;;;;;;12.67;100.00;97421.94;5002098;28;20555;-61
2023/09/28 02:55:13;;;;;;;6.43;3.58;;;;;;;12.59;100.00;97431.41;5003544;28;20052;-61
2023/09/28 02:57:41;;;;;;;6.15;3.90;;;;;;;12.61;100.00;97429.25;5003168;28;20126;-61
2023/09/28 03:00:28;;;;;;;6.15;3.80;;;;;;;12.64;100.00;97417.06;4998266;28;19921;-61
2023/09/28 03:02:58;;;;;;;5.45;3.28;;;;;;;12.69;100.00;97423.34;4983338;28;20120;-61
2023/09/28 03:05:26;;;;;;;7.20;3.95;;;;;;;12.73;100.00;97426.31;5003513;28;20077;-61
2023/09/28 03:07:53;;;;;;;7.85;3.78;;;;;;;12.44;100.00;97430.25;4985502;28;20121;-61
2023/09/28 03:10:20;;;;;;;5.78;4.00;;;;;;;12.41;100.00;97433.50;5002841;28;20038;-61
2023/09/28 03:12:48;;;;;;;5.95;4.00;;;;;;;12.47;100.00;97428.91;5001765;28;20037;-61
2023/09/28 03:15:16;;;;;;;7.00;3.95;;;;;;;12.53;100.00;97430.56;5003089;28;20045;-61
2023/09/28 03:17:46;;;;;;;5.70;3.25;;;;;;;12.42;100.00;97424.25;4987202;28;20049;-61
2023/09/28 03:20:14;;;;;;;6.80;3.90;;;;;;;12.39;100.00;97423.97;4985753;28;20104;-61
2023/09/28 03:22:43;;;;;;;6.40;3.85;;;;;;;12.38;100.00;97416.91;5003977;28;20109;-61
2023/09/28 03:25:16;;;;;;;6.25;3.75;;;;;;;12.44;100.00;97418.56;5007508;28;20125;-61
2023/09/28 03:27:44;;;;;;;7.55;4.18;;;;;;;12.55;100.00;97422.97;5002634;28;20125;-61
2023/09/28 03:30:12;;;;;;;6.47;3.70;;;;;;;12.68;100.00;97429.03;5007577;28;20048;-61
2023/09/28 03:32:39;;;;;;;5.32;3.45;;;;;;;12.73;100.00;97427.16;5003213;28;20034;-61
2023/09/28 03:35:08;;;;;;;9.80;4.80;;;;;;;12.74;100.00;97433.38;5007060;28;20041;-61
2023/09/28 03:37:34;;;;;;;7.15;4.07;;;;;;;12.80;100.00;97435.06;5003709;28;20037;-61
2023/09/28 03:40:07;;;;;;;5.75;3.40;;;;;;;12.87;100.00;97441.06;5006766;28;21476;-61
2023/09/28 03:42:33;;;;;;;7.07;3.78;;;;;;;12.81;100.00;97436.69;5006846;28;20042;-61
2023/09/28 03:45:00;;;;;;;5.50;3.15;;;;;;;12.84;100.00;97440.78;5006928;28;20049;-61
2023/09/28 03:47:26;;;;;;;7.20;3.50;;;;;;;12.88;100.00;97440.00;5006997;28;20050;-61
2023/09/28 03:49:53;;;;;;;6.80;4.05;;;;;;;12.92;100.00;97436.72;5006945;28;20062;-61
2023/09/28 03:52:19;;;;;;;7.60;3.60;;;;;;;12.98;100.00;97436.47;5005151;28;20053;-61
2023/09/28 03:54:46;;;;;;;5.32;3.67;;;;;;;12.93;100.00;97444.59;5006803;28;20461;-61
2023/09/28 03:57:13;;;;;;;7.63;2.92;;;;;;;12.91;100.00;97446.78;5006825;28;20104;-61
2023/09/28 03:59:39;;;;;;;6.90;3.55;;;;;;;12.88;100.00;97441.88;5006530;28;20084;-61
2023/09/28 04:02:06;;;;;;;6.90;3.63;;;;;;;12.53;100.00;97451.50;5006464;28;20525;-61
2023/09/28 04:04:32;;;;;;;5.57;3.70;;;;;;;12.48;100.00;97453.09;5005903;28;20068;-61
2023/09/28 04:06:59;;;;;;;6.93;4.05;;;;;;;12.34;100.00;97454.63;5006918;28;20053;-62
2023/09/28 04:09:26;;;;;;;5.93;3.85;;;;;;;12.19;100.00;97449.91;5006139;28;20069;-61
2023/09/28 04:11:52;;;;;;;6.13;3.70;;;;;;;12.28;100.00;97455.66;5004300;28;20060;-62
2023/09/28 04:14:18;;;;;;;9.55;4.15;;;;;;;12.35;100.00;97446.22;5006242;28;20037;-61
2023/09/28 04:16:46;;;;;;;5.80;3.60;;;;;;;12.52;100.00;97452.53;5006496;28;20060;-61
2023/09/28 04:19:13;;;;;;;7.20;3.88;;;;;;;12.69;100.00;97458.66;5006193;28;20125;-61
2023/09/28 04:21:39;;;;;;;6.90;3.88;;;;;;;12.85;100.00;97456.81;5005975;28;20129;-61
2023/09/28 04:24:06;;;;;;;8.32;4.47;;;;;;;13.00;100.00;97463.38;5005123;28;20464;-61
2023/09/28 04:26:32;;;;;;;6.05;3.90;;;;;;;13.07;100.00;97466.69;5005984;28;20046;-61
2023/09/28 04:28:59;;;;;;;7.05;4.00;;;;;;;13.12;100.00;97457.75;4992446;28;20803;-61
2023/09/28 04:31:26;;;;;;;6.75;3.35;;;;;;;13.14;100.00;97452.84;5005716;28;20054;-61
2023/09/28 04:33:52;;;;;;;6.15;3.38;;;;;;;13.18;100.00;97458.56;5005587;28;20049;-62
2023/09/28 04:36:19;;;;;;;6.85;3.83;;;;;;;13.20;100.00;97461.84;5006149;28;20092;-62
2023/09/28 04:38:46;;;;;;;5.07;3.75;;;;;;;13.19;100.00;97443.91;5006218;28;20037;-62
2023/09/28 04:41:12;;;;;;;6.40;3.80;;;;;;;13.22;100.00;97460.50;5005210;28;20541;-62
2023/09/28 04:43:39;;;;;;;5.68;3.47;;;;;;;13.25;100.00;97462.69;5009635;28;20048;-62
2023/09/28 04:46:06;;;;;;;7.13;3.90;;;;;;;13.26;100.00;97453.44;5006252;28;20041;-61
2023/09/28 04:48:33;;;;;;;6.68;3.70;;;;;;;13.30;100.00;97450.97;5004610;28;20050;-61
2023/09/28 04:50:59;;;;;;;5.10;3.10;;;;;;;13.31;100.00;97447.19;5005805;28;20038;-61
2023/09/28 04:53:26;;;;;;;5.68;3.95;;;;;;;13.27;100.00;97448.81;5003467;28;20042;-61
2023/09/28 04:55:52;;;;;;;6.00;3.67;;;;;;;13.17;100.00;97459.66;5003335;28;20045;-61
2023/09/28 04:58:19;;;;;;;5.82;3.60;;;;;;;13.18;100.00;97458.56;5005444;28;20046;-61
2023/09/28 05:00:46;;;;;;;6.57;3.88;;;;;;;13.18;100.00;97464.81;5005904;28;20034;-62
2023/09/28 05:03:12;;;;;;;6.57;3.70;;;;;;;13.16;100.00;97464.25;5002669;28;20445;-62
2023/09/28 05:05:39;;;;;;;7.55;3.78;;;;;;;13.17;100.00;97456.94;5006440;28;20041;-61
2023/09/28 05:08:05;;;;;;;7.00;3.78;;;;;;;13.18;100.00;97467.53;5003656;28;20069;-61
2023/09/28 05:10:32;;;;;;;7.15;4.18;;;;;;;13.18;100.00;97462.09;5002964;28;20132;-61
2023/09/28 05:12:58;;;;;;;7.15;3.53;;;;;;;13.22;100.00;97465.94;5002321;28;20034;-61
2023/09/28 05:15:25;;;;;;;7.22;3.97;;;;;;;13.24;100.00;97465.66;5004356;28;20057;-62
2023/09/28 05:17:51;;;;;;;7.68;3.80;;;;;;;13.22;100.00;97460.50;5002587;28;20089;-61
2023/09/28 05:20:18;;;;;;;6.93;3.55;;;;;;;13.23;100.00;97478.44;5006924;28;20046;-62
2023/09/28 05:22:45;;;;;;;6.30;3.83;;;;;;;13.25;100.00;97481.72;5002470;28;20074;-62
2023/09/28 05:25:11;;;;;;;6.53;3.40;;;;;;;13.26;100.00;97480.63;5004046;28;20123;-62
2023/09/28 05:27:38;;;;;;;6.00;3.53;;;;;;;13.33;100.00;97487.69;5003052;28;20046;-62
2023/09/28 05:30:05;;;;;;;7.05;3.58;;;;;;;13.46;100.00;97481.78;5002496;28;20596;-62
2023/09/28 05:32:32;;;;;;;5.95;3.63;;;;;;;13.52;100.00;97485.34;5001930;28;20057;-62
2023/09/28 05:34:59;;;;;;;6.18;3.75;;;;;;;13.71;100.00;97495.72;5001878;28;20133;-62
2023/09/28 05:37:26;;;;;;;7.00;3.42;;;;;;;13.76;100.00;97496.56;5001836;28;20679;-61
2023/09/28 05:39:54;;;;;;;7.00;3.42;;;;;;;13.82;100.00;97502.00;5002320;28;20084;-62
2023/09/28 05:42:20;;;;;;;6.63;3.60;;;;;;;13.68;100.00;97510.69;5002894;28;20038;-61
2023/09/28 05:44:47;;;;;;;5.80;3.78;;;;;;;13.66;100.00;97512.84;5001952;28;20096;-61
2023/09/28 05:47:13;;;;;;;6.68;3.78;;;;;;;13.56;100.00;97519.06;5001742;28;20594;-62
2023/09/28 05:49:40;;;;;;;;;;;;;;;13.63;100.00;97514.22;5002912;28;20509;-61
2023/09/28 05:52:06;;;;;;;;;;;;;;;13.35;100.00;97518.19;5001636;28;19925;-62
2023/09/28 05:54:33;;;;;;;;;;;;;;;13.25;100.00;97521.66;5002672;28;19929;-62
2023/09/28 05:56:59;;;;;;;;;;;;;;;13.24;100.00;97525.47;5002039;28;19926;-62
2023/09/28 05:59:26;;;;;;;;;;;;;;;13.20;100.00;97521.66;5002421;28;19921;-61
2023/09/28 06:01:53;;;;;;;;;;;;;;;13.06;100.00;97518.59;5002390;28;19944;-61
2023/09/28 06:04:19;;;;;;;;;;;;;;;13.12;100.00;97526.50;5001893;28;20013;-61
2023/09/28 06:06:46;;;;;;;6.25;3.40;;;;;;;13.14;100.00;97524.34;5004673;28;20004;-61
2023/09/28 06:09:14;;;;;;;8.60;3.85;;;;;;;13.12;100.00;97515.63;5004583;28;20132;-62
2023/09/28 06:11:40;;;;;;;6.90;3.80;;;;;;;13.09;100.00;97518.88;5000668;28;20493;-62
2023/09/28 06:14:08;;;;;;;5.60;3.30;;;;;;;13.15;100.00;97519.72;5005989;28;20042;-61
2023/09/28 06:16:38;;;;;;;8.18;3.67;;;;;;;13.20;100.00;97517.00;5004290;28;20115;-61
2023/09/28 06:19:04;;;;;;;8.82;3.65;;;;;;;13.24;100.00;97514.59;5003622;28;21527;-61
2023/09/28 06:21:32;;;;;;;7.88;3.95;;;;;;;13.27;100.00;97512.16;5002375;28;20087;-61
2023/09/28 06:23:58;;;;;;;7.25;4.45;;;;;;;13.29;100.00;97509.19;5003881;28;20045;-62
2023/09/28 06:26:26;;;;;;;9.95;4.15;;;;;;;13.29;100.00;97520.06;5000965;28;20049;-62
2023/09/28 06:29:08;;;;;;;6.97;3.53;;;;;;;13.31;100.00;97522.50;5002040;28;20049;-62
2023/09/28 06:31:35;;;;;;;5.43;3.55;;;;;;;13.32;100.00;97519.53;5001325;28;20423;-61
2023/09/28 06:34:02;;;;;;;7.07;4.10;;;;;;;13.37;100.00;97529.59;5002898;28;20037;-62
2023/09/28 06:36:29;;;;;;;6.35;3.80;;;;;;;13.51;100.00;97516.34;5001684;28;20610;-62
2023/09/28 06:38:59;;;;;;;6.28;3.70;;;;;;;13.43;100.00;97525.00;5001235;28;20038;-61
2023/09/28 06:41:26;;;;;;;6.10;4.25;;;;;;;13.34;100.00;97516.56;5001887;28;20081;-61
2023/09/28 06:43:53;;;;;;;7.60;4.30;;;;;;;13.34;100.00;97517.34;5003388;28;20113;-61
2023/09/28 06:46:21;;;;;;;6.72;3.50;;;;;;;13.47;100.00;97526.09;5000851;28;20045;-61
2023/09/28 06:48:49;;;;;;;8.13;3.58;;;;;;;13.49;100.00;97530.22;4991941;28;20104;-62
2023/09/28 06:51:16;;;;;;;10.25;3.80;;;;;;;13.53;100.00;97533.25;4975032;28;20049;-62
2023/09/28 06:53:43;;;;;;;7.45;4.00;;;;;;;13.55;100.00;97536.50;4980354;28;20033;-62
2023/09/28 06:56:09;;;;;;;7.15;3.45;;;;;;;13.64;100.00;97542.25;5002676;28;20033;-61
2023/09/28 06:58:40;;;;;;;7.60;3.67;;;;;;;13.72;100.00;97540.91;4998021;28;20045;-63
2023/09/28 07:01:08;;;;;;;6.40;3.97;;;;;;;13.79;100.00;97538.75;4966851;28;20525;-62
2023/09/28 07:03:34;;;;;;;6.78;4.03;;;;;;;13.82;100.00;97538.19;4993978;28;20046;-62
2023/09/28 07:06:01;;;;;;;8.10;3.92;;;;;;;13.88;100.00;97534.41;5000588;28;20452;-62
2023/09/28 07:08:27;;;;;;;7.10;3.47;;;;;;;13.89;100.00;97541.47;5000976;28;20545;-60
2023/09/28 07:10:54;;;;;;;9.25;3.28;;;;;;;13.93;100.00;97543.66;5001428;28;20484;-61
2023/09/28 07:13:20;;;;;;;7.05;3.67;;;;;;;13.94;100.00;97539.84;5000810;28;20040;-60
2023/09/28 07:15:47;;;;;;;4.88;3.13;;;;;;;13.96;100.00;97543.13;5001315;28;20084;-62
2023/09/28 07:18:13;;;;;;;5.78;3.28;;;;;;;14.01;100.00;97540.41;5001528;28;20439;-60
2023/09/28 07:20:40;;;;;;;7.68;3.40;;;;;;;14.08;100.00;97545.59;4969529;28;20050;-62
2023/09/28 07:23:07;;;;;;;6.60;3.45;;;;;;;14.20;100.00;97554.31;4973530;28;20060;-60
2023/09/28 07:25:34;;;;;;;8.52;3.20;;;;;;;14.34;98.42;97564.66;5001699;28;20045;-61
2023/09/28 07:28:00;;;;;;;5.63;3.15;;;;;;;14.58;98.75;97564.94;5001368;28;20050;-62
2023/09/28 07:30:27;;;;;;;5.18;2.85;;;;;;;14.70;97.55;97573.66;5000536;28;20053;-61
2023/09/28 07:32:54;;;;;;;7.20;3.25;;;;;;;14.83;97.06;97576.94;5001130;28;20034;-61
2023/09/28 07:35:20;;;;;;;6.25;2.70;;;;;;;14.93;96.00;97578.84;5000197;28;20057;-60
2023/09/28 07:37:47;;;;;;;9.20;3.50;;;;;;;15.05;94.31;97579.34;5001810;28;20281;-60
2023/09/28 07:40:17;;;;;;;7.40;3.13;;;;;;;15.18;93.77;97579.84;5001139;28;20038;-61
2023/09/28 07:42:54;;;;;;;7.40;3.00;;;;;;;15.30;93.28;97579.56;5000718;28;20052;-61
2023/09/28 07:45:20;;;;;;;6.72;2.60;;;;;;;15.38;93.13;97578.16;5000830;28;20042;-61
2023/09/28 07:47:47;;;;;;;6.40;3.10;;;;;;;15.68;90.49;97568.22;5000497;28;20081;-61
2023/09/28 07:50:17;;;;;;;6.53;3.43;;;;;;;15.90;89.54;97572.47;5001719;28;20129;-64
2023/09/28 07:52:44;;;;;;;10.18;2.80;;;;;;;16.07;88.88;97566.66;5000297;28;20096;-60
2023/09/28 07:55:12;;;;;;;5.28;3.10;;;;;;;16.22;86.17;97566.53;5001519;28;20034;-61
2023/09/28 07:57:39;;;;;;;6.05;3.30;;;;;;;16.44;85.75;97562.53;5000222;28;20048;-61
2023/09/28 08:00:25;;;;;;;;;;;;;;;16.68;85.29;97567.28;5003315;28;20603;-60
2023/09/28 08:02:51;;;;;;;;;;;;;;;16.81;83.41;97562.25;4999350;28;19925;-61
2023/09/28 08:05:18;;;;;;;;;;;;;;;16.99;81.44;97560.72;5001229;28;19983;-61
2023/09/28 08:07:44;;;;;;;;;;;;;;;17.11;81.40;97560.31;5001668;28;20028;-61
2023/09/28 08:10:29;;;;;;;5.88;2.75;;;;;;;17.24;80.57;97559.63;5005417;28;19928;-61
2023/09/28 08:12:56;;;;;;;5.93;2.80;;;;;;;17.33;81.57;97559.00;5005968;28;20038;-61
2023/09/28 08:15:22;;;;;;;4.72;2.53;;;;;;;17.43;81.18;97556.13;5004430;28;20042;-60
2023/09/28 08:18:03;;;;;;;5.28;2.63;;;;;;;17.55;80.65;97562.00;5005235;28;20045;-61
2023/09/28 08:20:33;;;;;;;7.13;3.20;;;;;;;17.69;78.94;97561.25;5008189;28;20141;-61
2023/09/28 08:23:01;;;;;;;5.68;2.78;;;;;;;17.78;79.53;97561.44;5004301;28;20608;-60
2023/09/28 08:25:31;;;;;;;5.50;2.42;;;;;;;17.83;79.38;97566.03;5003922;28;20038;-61
2023/09/28 08:27:57;;;;;;;7.18;2.83;;;;;;;17.95;78.40;97571.91;5004546;28;20080;-61
2023/09/28 08:30:24;;;;;;;5.05;2.33;;;;;;;18.18;76.81;97574.88;5002555;28;20065;-61
2023/09/28 08:32:52;;;;;;;5.78;2.70;;;;;;;18.28;73.83;97574.72;5006039;28;20044;-61
2023/09/28 08:35:20;;;;;;;4.28;2.10;;;;;;;18.39;72.62;97580.84;5005316;28;20040;-61
2023/09/28 08:37:47;;;;;;;4.53;2.35;;;;;;;18.42;73.69;97579.44;5003106;28;20561;-61
2023/09/28 08:40:13;;;;;;;6.53;2.28;;;;;;;18.44;74.07;97580.78;5006377;28;20041;-61
2023/09/28 08:42:43;;;;;;;3.63;2.00;;;;;;;18.46;73.55;97583.22;5004780;28;20044;-61
2023/09/28 08:45:14;;;;;;;5.15;2.45;;;;;;;18.61;72.90;97581.34;5003087;28;20041;-61
2023/09/28 08:47:47;;;;;;;4.85;2.60;;;;;;;18.90;69.00;97581.09;5006305;28;20549;-61
2023/09/28 08:50:23;;;;;;;5.00;2.20;;;;;;;19.06;68.36;97580.88;5002978;28;20038;-61
2023/09/28 08:52:50;;;;;;;4.55;2.08;;;;;;;19.12;68.66;97576.91;5000097;28;20042;-61
2023/09/28 08:55:18;;;;;;;4.80;2.10;;;;;;;19.17;67.73;97578.75;5005402;28;20375;-61
2023/09/28 08:57:46;;;;;;;3.97;1.95;;;;;;;19.18;67.43;97577.63;5006081;28;20140;-60
2023/09/28 09:00:14;;;;;;;4.53;2.30;;;;;;;19.22;67.07;97579.47;5004602;28;20233;-64
2023/09/28 09:02:42;;;;;;;4.32;2.10;;;;;;;19.29;67.04;97578.22;5003056;28;20050;-64
2023/09/28 09:05:13;;;;;;;3.95;1.92;;;;;;;19.39;66.37;97580.78;5004395;28;20320;-64
2023/09/28 09:07:42;;;;;;;4.10;2.00;;;;;;;19.46;66.27;97580.38;5003789;28;20665;-62
2023/09/28 09:10:17;;;;;;;4.40;2.05;;;;;;;19.61;64.51;97590.25;5004775;28;20403;-61
2023/09/28 09:12:43;;;;;;;3.95;2.33;;;;;;;19.73;62.32;97585.03;5001636;28;20045;-64
2023/09/28 09:15:10;;;;;;;3.63;1.73;;;;;;;20.00;56.65;97591.63;5002533;28;20045;-62
2023/09/28 09:17:37;;;;;;;4.05;1.85;;;;;;;20.08;57.61;97589.28;4985155;28;20594;-62
2023/09/28 09:20:08;;;;;;;4.18;1.80;;;;;;;20.16;56.41;97594.03;5002348;28;20060;-62
2023/09/28 09:22:35;;;;;;;3.83;1.90;;;;;;;20.26;55.54;97591.06;5002916;28;20050;-60
2023/09/28 09:25:20;;;;;;;4.18;1.80;;;;;;;20.37;55.14;97588.88;4994098;28;20038;-61
2023/09/28 09:27:48;;;;;;;6.97;1.80;;;;;;;20.48;55.02;97596.88;4994647;28;20459;-60
2023/09/28 09:30:15;;;;;;;4.85;1.80;;;;;;;20.64;55.23;97587.13;5002134;28;20041;-61
2023/09/28 09:32:42;;;;;;;4.93;1.70;;;;;;;20.75;54.57;97595.13;5004230;28;20050;-60
2023/09/28 09:35:13;;;;;;;5.32;2.05;;;;;;;20.95;52.91;97588.31;5002365;28;20052;-61
2023/09/28 09:37:41;;;;;;;5.05;1.77;;;;;;;21.21;51.18;97584.88;5002983;28;20683;-63
2023/09/28 09:40:12;;;;;;;6.22;2.10;;;;;;;21.28;51.46;97573.41;5004165;28;20685;-63
2023/09/28 09:42:41;;;;;;;;;;;;;;;21.27;52.52;97585.56;5003870;28;20464;-63
2023/09/28 09:45:11;;;;;;;4.55;1.73;;;;;;;21.28;53.30;97587.19;5006886;28;19925;-63
2023/09/28 09:47:48;;;;;;;7.13;2.30;;;;;;;21.39;54.35;97583.03;5004138;28;20060;-62
2023/09/28 09:50:17;;;;;;;4.05;1.90;;;;;;;21.41;51.29;97583.50;5000257;28;20072;-62
2023/09/28 09:52:44;;;;;;;5.82;1.98;;;;;;;21.52;51.58;97580.47;5002746;28;20166;-62
2023/09/28 09:55:12;;;;;;;4.50;1.90;;;;;;;21.60;50.93;97587.94;5003275;28;20069;-63
2023/09/28 09:57:41;;;;;;;3.60;1.70;;;;;;;21.69;50.17;97585.19;5002895;28;20099;-63
2023/09/28 10:00:09;;;;;;;5.30;2.40;;;;;;;21.68;50.20;97589.88;5002914;28;20049;-63
2023/09/28 10:02:40;;;;;;;5.07;1.90;;;;;;;21.80;49.15;97583.00;5001592;28;20062;-63
2023/09/28 10:05:09;;;;;;;5.22;1.85;;;;;;;21.82;49.59;97578.78;5002325;28;20044;-63
2023/09/28 10:07:37;;;;;;;5.50;1.70;;;;;;;21.87;49.44;97580.56;5002762;28;20069;-64
2023/09/28 10:10:07;;;;;;;5.70;2.30;;;;;;;21.92;49.97;97582.34;5002602;28;20038;-63
2023/09/28 10:12:34;;;;;;;4.05;1.90;;;;;;;21.95;49.39;97582.53;5002303;28;20060;-63
2023/09/28 10:15:01;;;;;;;4.38;1.95;;;;;;;22.01;49.30;97580.44;5002366;28;20042;-63
2023/09/28 10:17:29;;;;;;;4.97;2.15;;;;;;;22.06;49.36;97580.28;5002500;28;20057;-63
2023/09/28 10:19:57;;;;;;;4.82;2.22;;;;;;;22.16;51.71;97581.91;5002401;28;20119;-63
2023/09/28 10:22:24;;;;;;;4.35;1.80;;;;;;;22.25;52.81;97581.09;4984654;28;20753;-63
2023/09/28 10:24:51;;;;;;;4.50;1.80;;;;;;;22.27;52.52;97576.88;5002321;28;20067;-63
2023/09/28 10:27:17;;;;;;;5.95;1.92;;;;;;;22.30;52.71;97576.22;5002063;28;20052;-62
2023/09/28 10:29:44;;;;;;;5.18;2.05;;;;;;;22.34;52.93;97577.19;5002916;28;20045;-62
2023/09/28 10:32:30;;;;;;;5.22;2.08;;;;;;;22.35;52.58;97566.97;5002129;28;20049;-61
2023/09/28 10:35:24;;;;;;;4.18;2.08;;;;;;;22.41;51.89;97560.16;5001997;28;20124;-60
2023/09/28 10:38:19;;;;;;;5.90;2.00;;;;;;;22.46;51.56;97561.94;5002852;28;20091;-60
2023/09/28 10:40:59;;;;;;;6.65;1.98;;;;;;;22.58;51.77;97562.13;5002550;28;20618;-61
2023/09/28 10:43:40;;;;;;;4.07;2.00;;;;;;;22.64;50.99;97562.75;5000546;28;20049;-61
2023/09/28 10:46:08;;;;;;;5.70;2.00;;;;;;;22.64;50.68;97567.47;5002377;28;20066;-60
2023/09/28 10:48:42;;;;;;;4.80;2.15;;;;;;;22.67;50.35;97561.28;5001954;28;20100;-60
2023/09/28 10:51:13;;;;;;;4.65;2.38;;;;;;;22.71;50.19;97562.25;5001859;28;20044;-61
2023/09/28 10:53:39;;;;;;;4.47;1.90;;;;;;;22.83;50.28;97567.09;5000868;28;20045;-60
2023/09/28 10:56:06;;;;;;;4.32;1.88;;;;;;;22.94;49.75;97567.56;5005061;28;20033;-61
2023/09/28 10:58:34;;;;;;;5.10;2.15;;;;;;;23.00;49.89;97566.25;5001733;28;20057;-60
2023/09/28 11:01:04;;;;;;;4.95;2.05;;;;;;;23.01;49.05;97567.88;5001955;28;20045;-61
2023/09/28 11:03:32;;;;;;;3.90;2.00;;;;;;;22.98;49.14;97571.28;5001387;28;20054;-60
2023/09/28 11:06:04;;;;;;;8.82;1.92;;;;;;;22.88;50.19;97575.19;5001349;28;20069;-60
2023/09/28 11:08:32;;;;;;;3.95;1.80;;;;;;;22.89;49.71;97576.84;5000946;28;20499;-61
2023/09/28 11:11:01;;;;;;;6.53;2.20;;;;;;;22.99;49.54;97575.66;5001418;28;20139;-61
2023/09/28 11:13:29;;;;;;;5.20;2.22;;;;;;;23.03;48.93;97575.81;5001334;28;20061;-60
2023/09/28 11:15:56;;;;;;;6.30;2.30;;;;;;;23.03;48.58;97571.09;5002220;28;20095;-60
2023/09/28 11:18:25;;;;;;;7.20;1.85;;;;;;;22.98;48.08;97569.34;5000840;28;20516;-63
2023/09/28 11:20:53;;;;;;;4.35;1.98;;;;;;;23.14;48.00;97568.78;5000880;28;20041;-62
2023/09/28 11:23:20;;;;;;;4.72;2.10;;;;;;;23.18;48.39;97568.94;5000854;28;20056;-63
2023/09/28 11:25:47;;;;;;;4.55;2.03;;;;;;;23.19;48.57;97571.38;5002184;28;20470;-62
2023/09/28 11:28:14;;;;;;;5.30;2.13;;;;;;;23.40;48.24;97567.09;5002019;28;20045;-60
2023/09/28 11:30:41;;;;;;;3.53;1.73;;;;;;;23.45;47.29;97572.44;5000949;28;20042;-62
2023/09/28 11:33:07;;;;;;;4.57;2.20;;;;;;;23.47;47.35;97570.13;5001087;28;20509;-65
2023/09/28 11:35:35;;;;;;;5.03;1.98;;;;;;;23.47;46.94;97567.38;5000829;28;20730;-63
2023/09/28 11:38:03;;;;;;;4.65;1.85;;;;;;;23.47;46.46;97568.19;4999206;28;20073;-62